»·PEaware :: URF112 KIFP-KBUR

URF112 :: KIFP-KBUR

FLIGHT INFORMATION

Flight Status: Arrived
Operator: Unknown
More flights by this operator :: More flights under this callsign
Pilot: Dean L. (8400)
Aircraft: PILATUS PC-12 EAGLE
(PC12)
More flights by this aircraft type
Origin: KIFP Laughlin/Bullhead Intl
United States
Destination: KBUR Bob Hope-Burbank
United States
More flights between these airports :: More routes between these airports
Route: + HEC LYNXX8
File this flight plan on PilotEdge
Remarks:
Altitude:
(Current/Filed)
14,000ft
Speed:
(Current/Filed)
260kts
Departed: 29-Jun-18 03:14 PM
Arrived: 29-Jun-18 04:14 PM
Distance/Time
Traveled:
196nm/1:00
Distance/Time
To Go:
Arrived

Flight Plot

Page will automatically refresh every two minutes.

Flight plan parsing failed; only flown route is shown


Map Options




Map Legend


Flown Route
Filed Route
Departure Airport
Arrival Airport
Navaid (VOR, NDB)
Fix

Horizontal Profiles

Position Reports

Time Latitude Longitude Heading Altitude Ground
Speed
29-Jun-18 14:58 35.163906 -114.556278 85 646ft 0kts
29-Jun-18 14:59 35.163906 -114.556278 85 646ft 0kts
29-Jun-18 15:00 35.163906 -114.556278 85 646ft 0kts
29-Jun-18 15:01 35.163906 -114.556278 85 646ft 0kts
29-Jun-18 15:01 35.163906 -114.556278 85 646ft 0kts
29-Jun-18 15:02 35.163906 -114.556278 85 646ft 0kts
29-Jun-18 15:03 35.163906 -114.556278 85 646ft 0kts
29-Jun-18 15:04 35.163906 -114.556278 85 646ft 0kts
29-Jun-18 15:05 35.163906 -114.556278 85 646ft 0kts
29-Jun-18 15:07 35.163906 -114.556278 85 646ft 0kts
29-Jun-18 15:07 35.163906 -114.556278 85 646ft 0kts
29-Jun-18 15:08 35.163906 -114.556278 85 646ft 0kts
29-Jun-18 15:09 35.163906 -114.556278 85 646ft 0kts
29-Jun-18 15:10 35.163906 -114.556278 85 646ft 0kts
29-Jun-18 15:11 35.163908 -114.556258 85 646ft 3kts
29-Jun-18 15:12 35.165104 -114.557911 274 646ft 5kts
29-Jun-18 15:13 35.166421 -114.559116 265 646ft 0kts
29-Jun-18 15:14 35.163394 -114.559841 174 646ft 61kts
29-Jun-18 15:15 35.131556 -114.559188 175 2285ft 146kts
29-Jun-18 15:16 35.091678 -114.553722 175 5220ft 146kts
29-Jun-18 15:17 35.047688 -114.547118 174 7349ft 186kts
29-Jun-18 15:18 35.003763 -114.563695 257 9311ft 194kts
29-Jun-18 15:19 35.007512 -114.631118 262 11217ft 200kts
29-Jun-18 15:20 35.001011 -114.699196 258 13143ft 204kts
29-Jun-18 15:21 34.993156 -114.771400 259 14026ft 237kts
29-Jun-18 15:22 34.983906 -114.856441 259 14023ft 262kts
29-Jun-18 15:23 34.974116 -114.945720 259 14026ft 266kts
29-Jun-18 15:24 34.964149 -115.035058 259 14030ft 265kts
29-Jun-18 15:25 34.954329 -115.123948 259 14039ft 264kts
29-Jun-18 15:26 34.944374 -115.213306 259 14041ft 265kts
29-Jun-18 15:27 34.934166 -115.302501 259 14053ft 265kts
29-Jun-18 15:28 34.924015 -115.391819 259 14059ft 265kts
29-Jun-18 15:29 34.913886 -115.481165 259 14069ft 265kts
29-Jun-18 15:30 34.903631 -115.569811 258 14083ft 263kts
29-Jun-18 15:31 34.893312 -115.658824 259 14088ft 265kts
29-Jun-18 15:32 34.882988 -115.748066 259 14036ft 267kts
29-Jun-18 15:33 34.872374 -115.837838 259 14005ft 266kts
29-Jun-18 15:34 34.861859 -115.926887 259 14025ft 265kts
29-Jun-18 15:35 34.851211 -116.015876 259 14031ft 265kts
29-Jun-18 15:36 34.840665 -116.104012 259 14036ft 261kts
29-Jun-18 15:37 34.832042 -116.191772 260 14053ft 259kts
29-Jun-18 15:38 34.821415 -116.279302 258 14073ft 262kts
29-Jun-18 15:39 34.809870 -116.366370 258 14068ft 260kts
29-Jun-18 15:40 34.798210 -116.453769 258 14054ft 262kts
29-Jun-18 15:41 34.789288 -116.541608 260 14048ft 261kts
29-Jun-18 15:42 34.780759 -116.629552 260 14002ft 262kts
29-Jun-18 15:43 34.772043 -116.718092 260 13983ft 262kts
29-Jun-18 15:44 34.763403 -116.805817 261 13982ft 260kts
29-Jun-18 15:45 34.754616 -116.893328 260 13870ft 263kts
29-Jun-18 15:46 34.745579 -116.983397 260 13353ft 271kts
29-Jun-18 15:47 34.736231 -117.075724 260 12454ft 277kts
29-Jun-18 15:48 34.727105 -117.167430 259 12025ft 265kts
29-Jun-18 15:49 34.717706 -117.255013 260 12031ft 259kts
29-Jun-18 15:50 34.708745 -117.341918 260 12024ft 258kts
29-Jun-18 15:51 34.699692 -117.428886 259 12027ft 258kts
29-Jun-18 15:52 34.690552 -117.515655 259 12027ft 258kts
29-Jun-18 15:53 34.681411 -117.602479 260 12027ft 258kts
29-Jun-18 15:54 34.672190 -117.688844 259 12025ft 257kts
29-Jun-18 15:55 34.662897 -117.774731 259 12030ft 256kts
29-Jun-18 15:56 34.653427 -117.861897 260 11443ft 270kts
29-Jun-18 15:57 34.643488 -117.954207 260 10348ft 275kts
29-Jun-18 15:58 34.632891 -118.044870 262 9586ft 268kts
29-Jun-18 15:59 34.616066 -118.132677 255 9087ft 264kts
29-Jun-18 16:00 34.597552 -118.216136 254 9058ft 239kts
29-Jun-18 16:01 34.580569 -118.292509 254 9005ft 234kts
29-Jun-18 16:02 34.563601 -118.368433 254 9015ft 233kts
29-Jun-18 16:03 34.546179 -118.445918 255 8660ft 242kts
29-Jun-18 16:04 34.528406 -118.524459 255 8158ft 236kts
29-Jun-18 16:05 34.501709 -118.594703 246 7834ft 227kts
29-Jun-18 16:06 34.476168 -118.662960 238 7212ft 225kts
29-Jun-18 16:07 34.416977 -118.667754 162 6375ft 243kts
29-Jun-18 16:08 34.369158 -118.617586 114 5979ft 235kts
29-Jun-18 16:09 34.344078 -118.544547 112 5481ft 234kts
29-Jun-18 16:10 34.306603 -118.481661 142 4322ft 246kts
29-Jun-18 16:11 34.265355 -118.426679 125 3856ft 235kts
29-Jun-18 16:12 34.241714 -118.380824 137 2126ft 104kts
29-Jun-18 16:13 34.219118 -118.362987 158 1068ft 93kts
29-Jun-18 16:14 34.198994 -118.356890 166 726ft 37kts
29-Jun-18 16:15 34.196741 -118.358453 273 726ft 15kts

Navigation Log

Ident Type
Flight plan parsing failed, navigation log unavailable